createdAt,value
2019-01-03T00:01:36.932Z,99797.11
2019-01-03T00:04:24.012Z,99799.65
2019-01-03T00:07:25.038Z,99790.66
2019-01-03T00:10:12.172Z,99796.69
2019-01-03T00:12:59.053Z,99789.88
2019-01-03T00:15:47.262Z,99802.08
2019-01-03T00:18:34.285Z,99806.39
2019-01-03T00:21:23.685Z,99811.84
2019-01-03T00:24:30.342Z,99812.42
2019-01-03T00:27:37.068Z,99816.56
2019-01-03T00:30:25.690Z,99818.67
2019-01-03T00:33:14.656Z,99821.94
2019-01-03T00:36:03.762Z,99822.41
2019-01-03T00:38:51.974Z,99834.15
2019-01-03T00:41:36.825Z,99830.06
2019-01-03T00:44:20.947Z,99832.20
2019-01-03T00:47:19.560Z,99845.53
2019-01-03T00:50:23.103Z,99848.32
2019-01-03T00:53:11.309Z,99850.91
2019-01-03T00:56:09.521Z,99849.08
2019-01-03T00:58:57.976Z,99854.34
2019-01-03T01:01:48.028Z,99864.14
2019-01-03T01:04:42.043Z,99870.97
2019-01-03T01:07:34.280Z,99871.84
2019-01-03T01:10:22.761Z,99872.08
2019-01-03T01:13:23.375Z,99878.16
2019-01-03T01:16:21.578Z,99877.06
2019-01-03T01:19:16.275Z,99887.61
2019-01-03T01:22:03.418Z,99893.09
2019-01-03T01:25:07.599Z,99889.42
2019-01-03T01:27:46.606Z,99885.53
2019-01-03T01:30:44.052Z,99896.52
2019-01-03T01:33:50.553Z,99896.97
2019-01-03T01:36:41.491Z,99903.16
2019-01-03T01:39:32.716Z,99905.91
2019-01-03T01:42:20.955Z,99907.26
2019-01-03T01:45:07.943Z,99916.58
2019-01-03T01:47:55.188Z,99912.20
2019-01-03T01:50:43.400Z,99910.28
2019-01-03T01:53:30.383Z,99907.56
2019-01-03T01:56:17.581Z,99915.78
2019-01-03T01:59:01.923Z,99911.10
2019-01-03T02:01:59.283Z,99910.64
2019-01-03T02:04:43.787Z,99916.34
2019-01-03T02:07:43.873Z,99923.11
2019-01-03T02:10:35.142Z,99930.24
2019-01-03T02:13:24.239Z,99928.41
2019-01-03T02:16:21.252Z,99933.62
2019-01-03T02:19:08.355Z,99938.39
2019-01-03T02:21:51.529Z,99934.20
2019-01-03T02:24:51.858Z,99928.70
2019-01-03T02:27:39.020Z,99925.92
2019-01-03T02:30:33.046Z,99926.02
2019-01-03T02:33:20.013Z,99931.87
2019-01-03T02:36:22.850Z,99930.24
2019-01-03T02:39:29.576Z,99931.45
2019-01-03T02:42:20.280Z,99933.55
2019-01-03T02:45:08.517Z,99942.68
2019-01-03T02:47:47.681Z,99939.80
2019-01-03T02:50:35.895Z,99941.56
2019-01-03T02:53:23.089Z,99928.27
2019-01-03T02:56:14.413Z,99934.72
2019-01-03T02:59:02.606Z,99932.86
2019-01-03T03:01:49.824Z,99924.64
2019-01-03T03:04:47.105Z,99922.65
2019-01-03T03:07:26.550Z,99923.83
2019-01-03T03:10:25.986Z,99921.90
2019-01-03T03:13:13.219Z,99917.38
2019-01-03T03:16:04.310Z,99924.45
2019-01-03T03:18:43.854Z,99926.84
2019-01-03T03:21:40.985Z,99919.61
2019-01-03T03:24:32.018Z,99909.53
2019-01-03T03:27:18.899Z,99913.20
2019-01-03T03:30:05.847Z,99905.46
2019-01-03T03:32:54.041Z,99904.03
2019-01-03T03:35:54.392Z,99903.28
2019-01-03T03:38:45.372Z,99914.63
2019-01-03T03:41:48.764Z,99912.83
2019-01-03T03:44:28.998Z,99908.14
2019-01-03T03:47:27.259Z,99909.45
2019-01-03T03:50:14.288Z,99897.88
2019-01-03T03:53:11.587Z,99899.28
2019-01-03T03:55:58.391Z,99892.78
2019-01-03T03:58:46.603Z,99897.17
2019-01-03T04:01:46.739Z,99893.03
2019-01-03T04:04:35.677Z,99890.63
2019-01-03T04:07:35.934Z,99888.19
2019-01-03T04:10:43.345Z,99882.23
2019-01-03T04:13:31.549Z,99890.92
2019-01-03T04:16:19.348Z,99886.02
2019-01-03T04:19:17.212Z,99885.51
2019-01-03T04:22:14.615Z,99892.66
2019-01-03T04:25:01.458Z,99889.75
2019-01-03T04:27:55.686Z,99893.85
2019-01-03T04:30:51.275Z,99890.55
2019-01-03T04:33:39.512Z,99897.23
2019-01-03T04:36:26.495Z,99893.51
2019-01-03T04:39:14.742Z,99893.91
2019-01-03T04:42:18.310Z,99895.27
2019-01-03T04:45:12.376Z,99894.22
2019-01-03T04:48:09.452Z,99898.58
2019-01-03T04:51:03.797Z,99904.38
2019-01-03T04:53:50.993Z,99897.02
2019-01-03T04:56:51.567Z,99899.34
2019-01-03T04:59:39.362Z,99901.91
2019-01-03T05:02:42.762Z,99913.97
2019-01-03T05:05:23.830Z,99912.59
2019-01-03T05:08:12.850Z,99921.01
2019-01-03T05:11:00.190Z,99923.35
2019-01-03T05:14:06.611Z,99919.97
2019-01-03T05:16:53.495Z,99931.09
2019-01-03T05:19:39.499Z,99922.76
2019-01-03T05:22:34.121Z,99919.63
2019-01-03T05:25:28.551Z,99925.55
2019-01-03T05:28:25.852Z,99932.40
2019-01-03T05:31:16.941Z,99931.42
2019-01-03T05:34:14.314Z,99937.31
2019-01-03T05:36:51.870Z,99932.73
2019-01-03T05:39:45.626Z,99926.78
2019-01-03T05:42:32.421Z,99920.23
2019-01-03T05:45:26.943Z,99925.73
2019-01-03T05:48:18.308Z,99940.77
2019-01-03T05:51:05.758Z,99940.92
2019-01-03T05:53:53.269Z,99941.10
2019-01-03T05:56:51.853Z,99943.08
2019-01-03T05:59:39.307Z,99951.34
2019-01-03T06:02:45.055Z,99953.60
2019-01-03T06:05:34.760Z,99952.38
2019-01-03T06:08:35.531Z,99961.42
2019-01-03T06:11:23.951Z,99966.55
2019-01-03T06:14:15.231Z,99959.63
2019-01-03T06:17:02.300Z,99960.89
2019-01-03T06:20:09.546Z,99959.23
2019-01-03T06:22:56.689Z,99955.98
2019-01-03T06:25:43.935Z,99957.33
2019-01-03T06:28:32.120Z,99956.36
2019-01-03T06:31:26.300Z,99950.77
2019-01-03T06:34:23.338Z,99948.98
2019-01-03T06:37:10.543Z,99944.81
2019-01-03T06:39:59.097Z,99947.65
2019-01-03T06:42:53.217Z,99955.23
2019-01-03T06:45:40.395Z,99951.05
2019-01-03T06:48:40.698Z,99954.32
2019-01-03T06:51:29.230Z,99953.17
2019-01-03T06:54:21.038Z,99954.71
2019-01-03T06:57:21.099Z,99969.24
2019-01-03T07:00:13.425Z,99965.36
2019-01-03T07:03:04.718Z,99964.48
2019-01-03T07:05:51.903Z,99963.73
2019-01-03T07:08:45.636Z,99968.02
2019-01-03T07:11:46.046Z,99977.25
2019-01-03T07:14:33.064Z,99972.04
2019-01-03T07:17:36.618Z,99977.96
2019-01-03T07:20:29.479Z,99986.13
2019-01-03T07:23:17.641Z,99997.42
2019-01-03T07:26:04.839Z,100000.33
2019-01-03T07:29:08.442Z,100002.42
2019-01-03T07:31:55.417Z,99998.83
2019-01-03T07:34:42.352Z,100003.61
2019-01-03T07:37:33.332Z,100008.03
2019-01-03T07:40:30.718Z,100002.22
2019-01-03T07:43:36.958Z,99996.27
2019-01-03T07:46:26.825Z,99993.02
2019-01-03T07:49:13.930Z,99999.30
2019-01-03T07:52:02.225Z,100001.36
2019-01-03T07:55:02.582Z,100005.63
2019-01-03T07:58:09.510Z,100006.57
2019-01-03T08:01:16.175Z,100012.08
2019-01-03T08:04:04.428Z,100014.18
2019-01-03T08:06:51.523Z,100022.06
2019-01-03T08:09:57.917Z,100022.64
2019-01-03T08:12:44.646Z,100019.53
2019-01-03T08:15:38.475Z,100023.39
2019-01-03T08:18:31.974Z,100024.72
2019-01-03T08:21:23.458Z,100021.59
2019-01-03T08:24:07.927Z,100021.17
2019-01-03T08:26:49.753Z,100022.64
2019-01-03T08:29:37.739Z,100021.72
2019-01-03T08:32:44.586Z,100019.63
2019-01-03T08:35:32.803Z,100019.19
2019-01-03T08:38:27.176Z,100021.45
2019-01-03T08:41:30.748Z,100019.36
2019-01-03T08:44:24.964Z,100020.11
2019-01-03T08:47:13.083Z,100024.73
2019-01-03T08:50:01.313Z,100015.66
2019-01-03T08:53:04.893Z,100027.34
2019-01-03T08:56:00.202Z,100030.66
2019-01-03T08:58:47.315Z,100027.74
2019-01-03T09:01:41.459Z,100020.56
2019-01-03T09:04:27.941Z,100030.68
2019-01-03T09:07:15.321Z,100024.20
2019-01-03T09:10:02.199Z,100030.72
2019-01-03T09:12:47.304Z,100039.59
2019-01-03T09:15:34.606Z,100051.02
2019-01-03T09:18:21.437Z,100043.31
2019-01-03T09:21:09.760Z,100043.09
2019-01-03T09:24:07.228Z,100040.19
2019-01-03T09:27:01.983Z,100042.09
2019-01-03T09:30:00.465Z,100044.88
2019-01-03T09:32:47.718Z,100046.02
2019-01-03T09:35:48.287Z,100049.80
2019-01-03T09:38:39.644Z,100050.62
2019-01-03T09:41:27.887Z,100046.36
2019-01-03T09:44:09.453Z,100044.66
2019-01-03T09:46:39.075Z,100038.06
2019-01-03T09:49:08.902Z,100035.75
2019-01-03T09:51:38.255Z,100034.33
2019-01-03T09:54:08.684Z,100035.05
2019-01-03T09:56:37.976Z,100035.11
2019-01-03T09:59:07.241Z,100024.61
2019-01-03T10:01:36.531Z,100020.33
2019-01-03T10:04:05.800Z,100009.08
2019-01-03T10:06:35.055Z,100008.24
2019-01-03T10:09:06.182Z,100008.92
2019-01-03T10:11:35.430Z,100008.94
2019-01-03T10:14:04.698Z,100007.27
2019-01-03T10:16:33.973Z,100000.23
2019-01-03T10:19:03.283Z,100005.78
2019-01-03T10:21:32.538Z,99998.36
2019-01-03T10:24:01.795Z,99994.73
2019-01-03T10:26:31.046Z,99997.59
2019-01-03T10:29:00.308Z,99997.14
2019-01-03T10:31:30.697Z,99999.16
2019-01-03T10:33:59.950Z,100002.70
2019-01-03T10:36:30.325Z,99993.54
2019-01-03T10:38:59.576Z,100000.73
2019-01-03T10:41:28.828Z,99993.52
2019-01-03T10:43:58.104Z,99988.30
2019-01-03T10:46:27.363Z,99984.91
2019-01-03T10:48:56.665Z,99986.59
2019-01-03T10:51:26.026Z,99976.84
2019-01-03T10:53:55.432Z,99976.20
2019-01-03T10:56:24.709Z,99977.59
2019-01-03T10:58:53.957Z,99962.08
2019-01-03T11:01:23.257Z,99961.64
2019-01-03T11:03:52.505Z,99953.01
2019-01-03T11:06:21.795Z,99960.97
2019-01-03T11:08:51.069Z,99954.20
2019-01-03T11:11:20.663Z,99946.23
2019-01-03T11:13:51.508Z,99933.34
2019-01-03T11:16:21.111Z,99930.40
2019-01-03T11:18:50.371Z,99929.75
2019-01-03T11:21:19.653Z,99926.48
2019-01-03T11:23:48.927Z,99922.47
2019-01-03T11:26:18.185Z,99917.28
2019-01-03T11:28:47.505Z,99911.00
2019-01-03T11:31:16.828Z,99913.57
2019-01-03T11:33:46.055Z,99911.83
2019-01-03T11:36:15.319Z,99903.97
2019-01-03T11:38:44.567Z,99907.48
2019-01-03T11:41:13.836Z,99906.29
2019-01-03T11:43:43.116Z,99900.60
2019-01-03T11:46:12.417Z,99894.11
2019-01-03T11:48:41.684Z,99899.54
2019-01-03T11:51:10.964Z,99885.34
2019-01-03T11:53:40.238Z,99878.83
2019-01-03T11:56:09.525Z,99878.37
2019-01-03T11:58:38.798Z,99877.73
2019-01-03T12:01:09.234Z,99868.77
2019-01-03T12:03:38.533Z,99868.25
2019-01-03T12:06:07.792Z,99870.87
2019-01-03T12:08:37.063Z,99864.80
2019-01-03T12:11:06.349Z,99857.10
2019-01-03T12:13:35.635Z,99862.85
2019-01-03T12:16:04.885Z,99869.75
2019-01-03T12:18:34.191Z,99865.68
2019-01-03T12:21:03.499Z,99861.48
2019-01-03T12:23:32.731Z,99854.13
2019-01-03T12:26:02.022Z,99853.77
2019-01-03T12:28:32.761Z,99863.42
2019-01-03T12:31:02.082Z,99851.91
2019-01-03T12:33:31.347Z,99861.08
2019-01-03T12:36:00.622Z,99855.37
2019-01-03T12:38:29.893Z,99860.55
2019-01-03T12:40:59.398Z,99858.05
2019-01-03T12:43:28.726Z,99857.22
2019-01-03T12:45:58.006Z,99854.66
2019-01-03T12:48:28.512Z,99850.13
2019-01-03T12:50:58.024Z,99851.14
2019-01-03T12:53:28.431Z,99856.17
2019-01-03T12:55:58.856Z,99840.66
2019-01-03T12:58:28.347Z,99853.59
2019-01-03T13:00:58.893Z,99844.19
2019-01-03T13:03:29.189Z,99847.25
2019-01-03T13:05:58.489Z,99842.56
2019-01-03T13:08:27.752Z,99847.74
2019-01-03T13:10:57.049Z,99848.87
2019-01-03T13:13:26.322Z,99844.45
2019-01-03T13:15:55.581Z,99845.27
2019-01-03T13:18:24.844Z,99838.88
2019-01-03T13:20:54.125Z,99849.33
2019-01-03T13:23:23.403Z,99851.48
2019-01-03T13:25:54.177Z,99858.55
2019-01-03T13:28:25.788Z,99845.62
2019-01-03T13:30:55.070Z,99849.59
2019-01-03T13:33:24.405Z,99846.17
2019-01-03T13:35:53.667Z,99847.58
2019-01-03T13:38:22.965Z,99841.83
2019-01-03T13:40:52.266Z,99836.79
2019-01-03T13:43:21.527Z,99836.95
2019-01-03T13:45:50.857Z,99831.22
2019-01-03T13:48:20.110Z,99836.05
2019-01-03T13:50:49.388Z,99831.19
2019-01-03T13:53:18.645Z,99839.75
2019-01-03T13:55:47.966Z,99836.60
2019-01-03T13:58:17.187Z,99835.66
2019-01-03T14:00:46.488Z,99833.80
2019-01-03T14:03:17.556Z,99835.89
2019-01-03T14:05:46.831Z,99835.60
2019-01-03T14:08:16.121Z,99836.88
2019-01-03T14:10:45.393Z,99836.49
2019-01-03T14:13:14.791Z,99840.31
2019-01-03T14:15:44.209Z,99843.95
2019-01-03T14:18:13.701Z,99850.66
2019-01-03T14:20:42.945Z,99856.16
2019-01-03T14:23:12.212Z,99861.88
2019-01-03T14:25:41.518Z,99858.45
2019-01-03T14:28:10.772Z,99855.40
2019-01-03T14:30:40.045Z,99863.16
2019-01-03T14:33:09.293Z,99863.58
2019-01-03T14:35:38.563Z,99858.61
2019-01-03T14:38:07.830Z,99866.72
2019-01-03T14:40:38.224Z,99863.67
2019-01-03T14:43:07.486Z,99873.81
2019-01-03T14:45:36.749Z,99879.45
2019-01-03T14:48:06.037Z,99867.86
2019-01-03T14:50:35.396Z,99865.09
2019-01-03T14:53:04.699Z,99859.77
2019-01-03T14:55:33.960Z,99865.14
2019-01-03T14:58:04.345Z,99855.92
2019-01-03T15:00:33.727Z,99856.84
2019-01-03T15:03:03.004Z,99849.83
2019-01-03T15:05:32.542Z,99853.27
2019-01-03T15:08:01.845Z,99852.80
2019-01-03T15:10:31.183Z,99854.47
2019-01-03T15:13:00.486Z,99849.94
2019-01-03T15:15:29.817Z,99850.91
2019-01-03T15:17:59.064Z,99849.95
2019-01-03T15:20:28.390Z,99844.00
2019-01-03T15:22:57.692Z,99839.38
2019-01-03T15:25:26.999Z,99844.09
2019-01-03T15:27:56.276Z,99845.10
2019-01-03T15:30:25.530Z,99850.66
2019-01-03T15:32:54.814Z,99856.80
2019-01-03T15:35:24.084Z,99864.78
2019-01-03T15:37:53.393Z,99877.06
2019-01-03T15:40:24.471Z,99867.81
2019-01-03T15:42:53.738Z,99864.37
2019-01-03T15:45:23.012Z,99865.73
2019-01-03T15:47:52.284Z,99863.56
2019-01-03T15:50:21.562Z,99869.69
2019-01-03T15:52:50.832Z,99857.23
2019-01-03T15:55:20.083Z,99860.47
2019-01-03T15:57:49.465Z,99869.73
2019-01-03T16:00:19.013Z,99871.56
2019-01-03T16:02:48.593Z,99862.34
2019-01-03T16:05:17.939Z,99856.66
2019-01-03T16:07:47.223Z,99862.52
2019-01-03T16:10:16.625Z,99862.51
2019-01-03T16:12:45.906Z,99868.66
2019-01-03T16:15:15.221Z,99879.63
2019-01-03T16:17:44.510Z,99878.86
2019-01-03T16:20:13.782Z,99877.83
2019-01-03T16:22:43.077Z,99888.03
2019-01-03T16:25:12.380Z,99882.78
2019-01-03T16:27:41.685Z,99879.81
2019-01-03T16:30:11.495Z,99884.30
2019-01-03T16:32:40.937Z,99878.65
2019-01-03T16:35:10.236Z,99879.09
2019-01-03T16:37:40.519Z,99870.41
2019-01-03T16:40:11.043Z,99869.00
2019-01-03T16:42:46.339Z,99868.27
2019-01-03T16:45:16.824Z,99869.08
2019-01-03T16:47:46.852Z,99864.05
2019-01-03T16:50:18.513Z,99860.31
2019-01-03T16:52:48.528Z,99865.86
2019-01-03T16:55:18.977Z,99865.61
2019-01-03T16:57:48.537Z,99866.73
2019-01-03T17:00:18.163Z,99861.08
2019-01-03T17:02:47.690Z,99860.70
2019-01-03T17:05:17.036Z,99876.72
2019-01-03T17:07:49.060Z,99864.55
2019-01-03T17:10:19.377Z,99863.68
2019-01-03T17:12:48.683Z,99867.79
2019-01-03T17:15:18.212Z,99870.00
2019-01-03T17:17:48.712Z,99874.48
2019-01-03T17:20:18.018Z,99870.45
2019-01-03T17:22:47.283Z,99870.86
2019-01-03T17:25:16.575Z,99874.31
2019-01-03T17:27:45.841Z,99875.48
2019-01-03T17:30:15.214Z,99874.25
2019-01-03T17:32:44.953Z,99877.12
2019-01-03T17:35:14.467Z,99880.51
2019-01-03T17:37:43.757Z,99878.06
2019-01-03T17:40:14.363Z,99882.59
2019-01-03T17:42:45.772Z,99885.18
2019-01-03T17:45:15.144Z,99894.25
2019-01-03T17:47:46.221Z,99891.84
2019-01-03T17:50:18.563Z,99898.15
2019-01-03T17:52:47.857Z,99899.02
2019-01-03T17:55:17.696Z,99894.98
2019-01-03T17:57:48.724Z,99900.83
2019-01-03T18:00:21.495Z,99894.41
2019-01-03T18:02:51.440Z,99887.00
2019-01-03T18:05:20.719Z,99888.80
2019-01-03T18:07:50.061Z,99879.81
2019-01-03T18:10:19.353Z,99878.94
2019-01-03T18:12:48.983Z,99892.27
2019-01-03T18:15:18.242Z,99911.94
2019-01-03T18:17:47.554Z,99913.62
2019-01-03T18:20:18.139Z,99912.88
2019-01-03T18:22:48.035Z,99922.45
2019-01-03T18:25:19.521Z,99918.95
2019-01-03T18:27:49.176Z,99925.96
2019-01-03T18:30:18.517Z,99918.48
2019-01-03T18:32:48.379Z,99915.57
2019-01-03T18:35:17.726Z,99911.66
2019-01-03T18:37:46.990Z,99919.13
2019-01-03T18:40:17.257Z,99911.30
2019-01-03T18:42:47.489Z,99917.27
2019-01-03T18:45:22.643Z,99910.70
2019-01-03T18:47:52.172Z,99908.69
2019-01-03T18:50:21.498Z,99909.31
2019-01-03T18:52:51.390Z,99910.79
2019-01-03T18:55:20.721Z,99911.23
2019-01-03T18:57:50.162Z,99906.21
2019-01-03T19:00:19.894Z,99906.73
2019-01-03T19:02:49.170Z,99906.45
2019-01-03T19:05:18.761Z,99896.56
2019-01-03T19:07:49.830Z,99891.20
2019-01-03T19:10:19.315Z,99886.34
2019-01-03T19:12:48.594Z,99889.39
2019-01-03T19:15:18.149Z,99886.52
2019-01-03T19:17:47.669Z,99886.66
2019-01-03T19:20:17.222Z,99885.66
2019-01-03T19:22:46.822Z,99885.73
2019-01-03T19:25:18.329Z,99881.80
2019-01-03T19:27:47.942Z,99883.66
2019-01-03T19:30:17.356Z,99883.78
2019-01-03T19:32:47.410Z,99880.57
2019-01-03T19:35:35.749Z,99876.65
2019-01-03T19:38:05.134Z,99877.70
2019-01-03T19:40:34.657Z,99870.30
2019-01-03T19:43:04.348Z,99868.94
2019-01-03T19:45:33.777Z,99866.37
2019-01-03T19:48:04.234Z,99863.86
2019-01-03T19:50:34.667Z,99864.61
2019-01-03T19:53:04.067Z,99859.61
2019-01-03T19:55:33.367Z,99861.92
2019-01-03T19:58:02.688Z,99863.34
2019-01-03T20:00:32.060Z,99864.84
2019-01-03T20:03:01.363Z,99881.89
2019-01-03T20:05:30.641Z,99875.00
2019-01-03T20:07:59.900Z,99873.64
2019-01-03T20:10:33.841Z,99887.86
2019-01-03T20:13:03.206Z,99884.48
2019-01-03T20:15:32.490Z,99882.27
2019-01-03T20:18:02.360Z,99882.38
2019-01-03T20:20:31.649Z,99879.27
2019-01-03T20:23:00.947Z,99883.14
2019-01-03T20:25:30.211Z,99890.21
2019-01-03T20:27:59.573Z,99895.10
2019-01-03T20:30:28.853Z,99888.58
2019-01-03T20:32:58.154Z,99888.34
2019-01-03T20:35:27.450Z,99872.11
2019-01-03T20:37:56.711Z,99863.45
2019-01-03T20:40:26.039Z,99856.67
2019-01-03T20:42:57.540Z,99862.97
2019-01-03T20:45:27.069Z,99864.16
2019-01-03T20:47:56.334Z,99862.34
2019-01-03T20:50:25.708Z,99868.02
2019-01-03T20:52:56.095Z,99860.48
2019-01-03T20:55:25.702Z,99857.80
2019-01-03T20:57:54.975Z,99864.90
2019-01-03T21:00:24.279Z,99862.47
2019-01-03T21:02:53.624Z,99857.80
2019-01-03T21:05:23.062Z,99848.80
2019-01-03T21:07:52.339Z,99851.95
2019-01-03T21:10:23.206Z,99852.48
2019-01-03T21:12:52.511Z,99859.73
2019-01-03T21:15:21.866Z,99865.86
2019-01-03T21:17:51.230Z,99865.84
2019-01-03T21:20:21.867Z,99861.59
2019-01-03T21:22:51.146Z,99867.21
2019-01-03T21:25:20.691Z,99878.34
2019-01-03T21:27:49.959Z,99879.81
2019-01-03T21:30:20.727Z,99883.83
2019-01-03T21:32:49.988Z,99888.91
2019-01-03T21:35:19.287Z,99895.39
2019-01-03T21:37:48.583Z,99883.44
2019-01-03T21:40:20.428Z,99891.61
2019-01-03T21:42:49.994Z,99890.73
2019-01-03T21:45:19.341Z,99898.70
2019-01-03T21:47:48.685Z,99894.41
2019-01-03T21:50:18.070Z,99908.67
2019-01-03T21:52:47.346Z,99909.19
2019-01-03T21:55:16.664Z,99912.81
2019-01-03T21:57:45.929Z,99910.70
2019-01-03T22:00:15.878Z,99916.89
2019-01-03T22:02:45.178Z,99919.70
2019-01-03T22:05:14.474Z,99922.27
2019-01-03T22:07:43.841Z,99915.26
2019-01-03T22:10:13.122Z,99919.58
2019-01-03T22:12:44.634Z,99926.25
2019-01-03T22:15:13.971Z,99924.02
2019-01-03T22:17:43.466Z,99919.75
2019-01-03T22:20:12.728Z,99914.05
2019-01-03T22:22:42.493Z,99915.02
2019-01-03T22:25:12.330Z,99917.72
2019-01-03T22:27:42.206Z,99913.88
2019-01-03T22:30:12.725Z,99906.76
2019-01-03T22:32:42.589Z,99903.31
2019-01-03T22:35:12.296Z,99911.48
2019-01-03T22:37:44.135Z,99909.45
2019-01-03T22:40:13.772Z,99916.44
2019-01-03T22:42:43.047Z,99920.62
2019-01-03T22:45:14.093Z,99917.59
2019-01-03T22:47:43.731Z,99907.04
2019-01-03T22:50:15.147Z,99908.48
2019-01-03T22:52:44.453Z,99913.85
2019-01-03T22:55:14.155Z,99902.70
2019-01-03T22:57:43.913Z,99906.21
2019-01-03T23:00:27.155Z,99915.21
2019-01-03T23:02:57.450Z,99908.39
2019-01-03T23:05:26.756Z,99903.23
2019-01-03T23:07:56.846Z,99906.09
2019-01-03T23:10:37.345Z,99911.47
2019-01-03T23:13:06.891Z,99918.60
2019-01-03T23:15:37.008Z,99918.06
2019-01-03T23:18:09.871Z,99911.54
2019-01-03T23:20:39.150Z,99911.47
2019-01-03T23:23:09.026Z,99915.20
2019-01-03T23:25:38.487Z,99911.00
2019-01-03T23:28:08.094Z,99913.38
2019-01-03T23:30:37.342Z,99913.11
2019-01-03T23:33:06.843Z,99927.02
2019-01-03T23:35:36.116Z,99934.02
2019-01-03T23:38:05.390Z,99937.77
2019-01-03T23:40:34.672Z,99940.05
2019-01-03T23:43:03.942Z,99937.88
2019-01-03T23:45:33.534Z,99939.28
2019-01-03T23:48:03.285Z,99935.55
2019-01-03T23:50:37.024Z,99932.12
2019-01-03T23:53:06.658Z,99937.00
2019-01-03T23:55:41.216Z,99936.59
2019-01-03T23:58:10.484Z,99939.40
